createdAt,value
2019-02-04T00:00:46.928Z,91.75
2019-02-04T00:05:51.379Z,91.27
2019-02-04T00:10:55.755Z,92.62
2019-02-04T00:16:00.147Z,91.82
2019-02-04T00:21:05.642Z,92.04
2019-02-04T00:26:09.977Z,90.92
2019-02-04T00:31:14.363Z,90.88
2019-02-04T00:36:18.936Z,91.25
2019-02-04T00:41:23.335Z,91.41
2019-02-04T00:47:19.950Z,90.82
2019-02-04T00:52:24.363Z,91.91
2019-02-04T00:57:28.694Z,91.51
2019-02-04T01:02:33.357Z,89.82
2019-02-04T01:07:37.741Z,91.26
2019-02-04T01:12:42.086Z,91.96
2019-02-04T01:17:46.486Z,90.46
2019-02-04T01:22:51.013Z,90.58
2019-02-04T01:27:55.447Z,90.50
2019-02-04T01:32:59.854Z,90.26
2019-02-04T01:38:04.531Z,90.26
2019-02-04T01:43:08.882Z,89.57
2019-02-04T01:48:13.342Z,89.76
2019-02-04T01:53:17.734Z,89.24
2019-02-04T01:58:22.103Z,91.53
2019-02-04T02:03:26.460Z,90.59
2019-02-04T02:08:30.820Z,90.77
2019-02-04T02:13:35.336Z,90.87
2019-02-04T02:18:39.707Z,91.55
2019-02-04T02:23:44.115Z,92.26
2019-02-04T02:28:48.476Z,90.92
2019-02-04T02:33:52.824Z,92.35
2019-02-04T02:38:57.222Z,91.36
2019-02-04T02:44:01.559Z,91.20
2019-02-04T02:49:06.111Z,91.14
2019-02-04T02:54:10.468Z,91.90
2019-02-04T02:59:14.891Z,92.12
2019-02-04T03:04:19.287Z,91.59
2019-02-04T03:09:23.593Z,91.39
2019-02-04T03:14:27.954Z,92.63
2019-02-04T03:19:32.498Z,91.78
2019-02-04T03:24:37.157Z,92.31
2019-02-04T03:29:41.544Z,92.54
2019-02-04T03:34:45.923Z,93.54
2019-02-04T03:39:50.272Z,93.54
2019-02-04T03:44:55.263Z,92.60
2019-02-04T03:49:59.612Z,93.22
2019-02-04T03:55:04.675Z,93.53
2019-02-04T04:00:22.939Z,93.26
2019-02-04T04:05:27.310Z,93.54
2019-02-04T04:10:31.656Z,93.35
2019-02-04T04:15:36.246Z,93.83
2019-02-04T04:20:40.608Z,94.19
2019-02-04T04:25:45.006Z,94.02
2019-02-04T04:30:49.379Z,93.35
2019-02-04T04:35:53.952Z,93.12
2019-02-04T04:40:58.275Z,92.26
2019-02-04T04:46:02.621Z,92.99
2019-02-04T04:51:07.062Z,92.87
2019-02-04T04:56:11.609Z,92.77
2019-02-04T05:01:16.140Z,92.98
2019-02-04T05:06:20.519Z,92.09
2019-02-04T05:11:24.876Z,92.88
2019-02-04T05:16:29.250Z,91.93
2019-02-04T05:21:33.615Z,92.47
2019-02-04T05:26:37.954Z,91.47
2019-02-04T05:31:42.303Z,90.60
2019-02-04T05:36:46.660Z,90.99
2019-02-04T05:41:51.105Z,91.41
2019-02-04T05:46:55.482Z,92.74
2019-02-04T05:51:59.978Z,92.06
2019-02-04T05:57:04.435Z,92.16
2019-02-04T06:02:12.485Z,90.46
2019-02-04T06:07:18.314Z,90.20
2019-02-04T06:12:22.838Z,89.67
2019-02-04T06:17:27.607Z,89.95
2019-02-04T06:22:32.036Z,89.65
2019-02-04T06:27:36.497Z,91.03
2019-02-04T06:32:40.898Z,90.91
2019-02-04T06:37:46.801Z,90.16
2019-02-04T06:42:51.527Z,90.18
2019-02-04T06:47:55.880Z,90.89
2019-02-04T06:53:00.399Z,90.51
2019-02-04T06:58:04.756Z,88.68
2019-02-04T07:03:09.131Z,89.10
2019-02-04T07:08:13.472Z,89.81
2019-02-04T07:13:17.868Z,89.20
2019-02-04T07:18:22.242Z,88.63
2019-02-04T07:23:26.632Z,88.36
2019-02-04T07:28:31.008Z,86.21
2019-02-04T07:33:36.346Z,86.89
2019-02-04T07:38:40.723Z,86.37
2019-02-04T07:43:45.078Z,85.83
2019-02-04T07:48:49.442Z,86.18
2019-02-04T07:53:54.000Z,84.53
2019-02-04T07:58:58.371Z,84.39
2019-02-04T08:04:02.845Z,83.14
2019-02-04T08:09:08.260Z,83.90
2019-02-04T08:14:12.605Z,84.44
2019-02-04T08:19:16.948Z,84.56
2019-02-04T08:24:21.292Z,84.46
2019-02-04T08:29:25.802Z,84.57
2019-02-04T08:34:30.140Z,84.18
2019-02-04T08:39:34.545Z,84.91
2019-02-04T08:44:38.888Z,84.59
2019-02-04T08:49:43.423Z,85.25
2019-02-04T08:54:47.787Z,85.42
2019-02-04T08:59:52.131Z,85.33
2019-02-04T09:04:56.471Z,84.77
2019-02-04T09:10:00.957Z,84.96
2019-02-04T09:15:16.195Z,83.64
2019-02-04T09:20:20.051Z,83.98
2019-02-04T09:25:27.933Z,83.50
2019-02-04T09:30:32.355Z,83.55
2019-02-04T09:35:36.754Z,84.39
2019-02-04T09:40:43.176Z,83.73
2019-02-04T09:45:47.533Z,83.97
2019-02-04T09:50:52.919Z,83.22
2019-02-04T09:55:57.295Z,83.45
2019-02-04T10:01:04.251Z,82.17
2019-02-04T10:06:07.735Z,80.38
2019-02-04T10:11:12.238Z,81.08
2019-02-04T10:16:16.637Z,80.99
2019-02-04T10:21:21.096Z,81.49
2019-02-04T10:26:25.658Z,81.94
2019-02-04T10:31:30.091Z,81.96
2019-02-04T10:36:34.481Z,82.05
2019-02-04T10:41:38.838Z,83.00
2019-02-04T10:46:43.259Z,80.85
2019-02-04T10:51:47.692Z,81.56
2019-02-04T10:56:52.037Z,81.73
2019-02-04T11:01:56.480Z,80.98
2019-02-04T11:07:00.862Z,81.81
2019-02-04T11:12:05.496Z,81.42
2019-02-04T11:17:10.145Z,81.62
2019-02-04T11:22:14.532Z,80.23
2019-02-04T11:27:18.886Z,79.96
2019-02-04T11:32:23.376Z,79.67
2019-02-04T11:37:27.722Z,79.03
2019-02-04T11:42:32.284Z,78.04
2019-02-04T11:47:36.665Z,78.81
2019-02-04T11:52:41.407Z,79.30
2019-02-04T11:57:45.853Z,78.89
2019-02-04T12:02:50.664Z,78.88
2019-02-04T12:07:55.037Z,78.12
2019-02-04T12:12:59.529Z,77.20
2019-02-04T12:18:05.233Z,76.60
2019-02-04T12:23:09.785Z,76.76
2019-02-04T12:28:14.500Z,76.45
2019-02-04T12:33:18.873Z,76.86
2019-02-04T12:38:23.478Z,75.52
2019-02-04T12:43:27.829Z,75.82
2019-02-04T12:48:32.226Z,75.78
2019-02-04T12:53:36.562Z,75.82
2019-02-04T12:58:40.955Z,74.79
2019-02-04T13:03:45.704Z,74.37
2019-02-04T13:08:50.058Z,73.63
2019-02-04T13:13:54.402Z,73.54
2019-02-04T13:18:58.872Z,74.21
2019-02-04T13:24:03.242Z,72.30
2019-02-04T13:29:07.606Z,73.01
2019-02-04T13:34:12.073Z,72.59
2019-02-04T13:39:16.500Z,72.87
2019-02-04T13:44:20.870Z,70.43
2019-02-04T13:49:25.287Z,70.70
2019-02-04T13:54:29.749Z,70.76
2019-02-04T13:59:34.158Z,70.99
2019-02-04T14:04:40.126Z,70.20
2019-02-04T14:09:44.461Z,70.81
2019-02-04T14:14:49.296Z,70.44
2019-02-04T14:19:53.668Z,72.23
2019-02-04T14:24:58.029Z,70.72
2019-02-04T14:30:02.409Z,70.13
2019-02-04T14:35:08.616Z,71.62
2019-02-04T14:40:18.492Z,70.80
2019-02-04T14:45:31.096Z,69.28
2019-02-04T14:50:58.144Z,68.42
2019-02-04T14:56:18.049Z,68.56
2019-02-04T15:02:00.360Z,68.22
2019-02-04T15:07:30.779Z,69.26
2019-02-04T15:13:01.154Z,68.55
2019-02-04T15:18:20.694Z,69.90
2019-02-04T15:23:54.030Z,71.33
2019-02-04T15:29:01.564Z,70.84
2019-02-04T15:34:33.542Z,72.83
2019-02-04T15:39:43.998Z,72.74
2019-02-04T15:45:06.185Z,75.25
2019-02-04T15:50:29.570Z,76.13
2019-02-04T15:55:33.914Z,75.56
2019-02-04T16:00:38.277Z,76.12
2019-02-04T16:05:42.851Z,76.40
2019-02-04T16:10:47.240Z,77.03
2019-02-04T16:15:51.595Z,78.33
2019-02-04T16:20:55.947Z,78.55
2019-02-04T16:26:00.308Z,80.11
2019-02-04T16:31:04.703Z,80.55
2019-02-04T16:36:09.040Z,80.32
2019-02-04T16:41:13.786Z,80.69
2019-02-04T16:46:18.325Z,81.14
2019-02-04T16:51:22.701Z,78.88
2019-02-04T16:56:27.061Z,79.00
2019-02-04T17:01:31.446Z,81.85
2019-02-04T17:06:35.812Z,81.72
2019-02-04T17:11:40.173Z,82.66
2019-02-04T17:16:44.617Z,82.68
2019-02-04T17:21:49.070Z,84.08
2019-02-04T17:26:53.504Z,83.92
2019-02-04T17:32:00.405Z,84.32
2019-02-04T17:37:04.366Z,84.75
2019-02-04T17:42:09.054Z,84.31
2019-02-04T17:47:13.598Z,83.88
2019-02-04T17:52:17.998Z,83.11
2019-02-04T17:57:22.396Z,83.59
2019-02-04T18:02:26.782Z,84.34
2019-02-04T18:07:31.228Z,84.61
2019-02-04T18:12:35.619Z,83.74
2019-02-04T18:17:40.450Z,84.97
2019-02-04T18:22:45.001Z,84.16
2019-02-04T18:27:49.451Z,85.68
2019-02-04T18:32:54.077Z,85.35
2019-02-04T18:37:58.938Z,85.99
2019-02-04T18:43:03.322Z,86.37
2019-02-04T18:48:07.764Z,86.72
2019-02-04T18:53:12.386Z,86.82
2019-02-04T18:58:18.254Z,86.95
2019-02-04T19:03:24.066Z,86.18
2019-02-04T19:08:29.765Z,86.30
2019-02-04T19:13:36.578Z,86.30
2019-02-04T19:18:44.831Z,85.98
2019-02-04T19:23:50.614Z,86.66
2019-02-04T19:29:06.730Z,88.00
2019-02-04T19:34:12.657Z,88.43
2019-02-04T19:39:18.142Z,89.24
2019-02-04T19:44:24.416Z,89.31
2019-02-04T19:49:29.230Z,89.75
2019-02-04T19:54:33.899Z,90.13
2019-02-04T19:59:39.135Z,89.70
2019-02-04T20:04:44.022Z,89.31
2019-02-04T20:09:51.469Z,89.87
2019-02-04T20:14:56.298Z,89.85
2019-02-04T20:20:02.959Z,90.18
2019-02-04T20:25:25.763Z,91.19
2019-02-04T20:30:45.633Z,90.31
2019-02-04T20:35:46.145Z,89.28
2019-02-04T20:40:50.790Z,89.72
2019-02-04T20:45:55.160Z,89.37
2019-02-04T20:51:00.325Z,89.93
2019-02-04T20:56:05.262Z,88.51
2019-02-04T21:01:09.684Z,88.60
2019-02-04T21:06:14.193Z,89.61
2019-02-04T21:11:18.557Z,90.02
2019-02-04T21:16:22.962Z,88.95
2019-02-04T21:21:27.526Z,88.93
2019-02-04T21:26:31.889Z,88.27
2019-02-04T21:31:36.606Z,86.46
2019-02-04T21:36:41.200Z,86.83
2019-02-04T21:41:45.655Z,86.87
2019-02-04T21:46:50.027Z,87.68
2019-02-04T21:51:54.466Z,88.94
2019-02-04T21:56:58.838Z,88.68
2019-02-04T22:02:03.228Z,88.10
2019-02-04T22:07:09.829Z,88.12
2019-02-04T22:12:14.498Z,89.48
2019-02-04T22:17:18.864Z,89.00
2019-02-04T22:22:25.213Z,88.78
2019-02-04T22:27:29.593Z,87.88
2019-02-04T22:32:33.946Z,87.58
2019-02-04T22:37:38.374Z,87.18
2019-02-04T22:42:42.777Z,88.26
2019-02-04T22:47:47.150Z,87.43
2019-02-04T22:52:52.087Z,86.69
2019-02-04T22:57:56.654Z,85.50
2019-02-04T23:03:01.188Z,86.27
2019-02-04T23:08:06.276Z,85.79
2019-02-04T23:13:11.814Z,86.30
2019-02-04T23:18:16.273Z,86.35
2019-02-04T23:23:20.640Z,85.68
2019-02-04T23:28:25.022Z,87.14
2019-02-04T23:33:34.074Z,89.96
2019-02-04T23:38:35.491Z,89.96
2019-02-04T23:43:40.244Z,89.63
2019-02-04T23:48:44.627Z,88.53
2019-02-04T23:53:50.085Z,87.89
2019-02-04T23:58:54.430Z,86.75
